createdAt,value
2023-04-26T00:01:59.021Z,100872.63
2023-04-26T00:04:26.026Z,100862.25
2023-04-26T00:06:53.100Z,100858.00
2023-04-26T00:09:20.015Z,100857.88
2023-04-26T00:11:47.499Z,100861.69
2023-04-26T00:14:15.413Z,100857.44
2023-04-26T00:16:42.635Z,100853.47
2023-04-26T00:19:10.402Z,100861.31
2023-04-26T00:21:37.490Z,100864.69
2023-04-26T00:24:05.979Z,100864.28
2023-04-26T00:26:34.802Z,100864.16
2023-04-26T00:29:03.227Z,100857.38
2023-04-26T00:31:30.285Z,100856.97
2023-04-26T00:33:57.325Z,100850.16
2023-04-26T00:36:24.277Z,100854.41
2023-04-26T00:38:51.456Z,100847.59
2023-04-26T00:41:18.429Z,100840.34
2023-04-26T00:43:45.924Z,100840.34
2023-04-26T00:46:13.175Z,100841.38
2023-04-26T00:48:40.229Z,100852.44
2023-04-26T00:51:08.224Z,100859.25
2023-04-26T00:53:35.831Z,100847.91
2023-04-26T00:56:03.778Z,100853.28
2023-04-26T00:58:30.983Z,100857.72
2023-04-26T01:00:58.880Z,100861.50
2023-04-26T01:03:26.959Z,100859.84
2023-04-26T01:05:54.991Z,100859.97
2023-04-26T01:08:23.950Z,100863.22
2023-04-26T01:10:51.342Z,100848.19
2023-04-26T01:13:18.603Z,100841.69
2023-04-26T01:15:49.379Z,100845.38
2023-04-26T01:18:16.410Z,100851.03
2023-04-26T01:20:43.380Z,100852.03
2023-04-26T01:23:11.932Z,100852.31
2023-04-26T01:25:39.266Z,100848.91
2023-04-26T01:28:06.407Z,100851.59
2023-04-26T01:30:33.620Z,100848.91
2023-04-26T01:33:00.518Z,100846.53
2023-04-26T01:35:27.766Z,100844.81
2023-04-26T01:37:55.012Z,100839.69
2023-04-26T01:40:22.224Z,100832.75
2023-04-26T01:42:49.322Z,100840.97
2023-04-26T01:45:16.369Z,100844.81
2023-04-26T01:47:43.394Z,100844.13
2023-04-26T01:50:11.163Z,100840.00
2023-04-26T01:52:38.038Z,100834.91
2023-04-26T01:55:05.754Z,100827.78
2023-04-26T01:57:32.622Z,100838.75
2023-04-26T01:59:59.680Z,100829.22
2023-04-26T02:02:26.972Z,100817.75
2023-04-26T02:04:54.008Z,100824.97
2023-04-26T02:07:20.975Z,100828.69
2023-04-26T02:09:48.095Z,100816.63
2023-04-26T02:12:15.069Z,100828.94
2023-04-26T02:14:41.972Z,100815.91
2023-04-26T02:17:11.978Z,100809.09
2023-04-26T02:19:39.242Z,100813.06
2023-04-26T02:22:06.641Z,100809.66
2023-04-26T02:24:33.798Z,100812.63
2023-04-26T02:27:04.041Z,100821.25
2023-04-26T02:29:43.860Z,100818.44
2023-04-26T02:32:12.959Z,100815.31
2023-04-26T02:34:39.860Z,100810.06
2023-04-26T02:37:07.823Z,100816.59
2023-04-26T02:39:35.044Z,100812.03
2023-04-26T02:42:02.179Z,100805.94
2023-04-26T02:44:32.281Z,100803.41
2023-04-26T02:46:59.763Z,100802.72
2023-04-26T02:49:26.775Z,100809.09
2023-04-26T02:51:53.670Z,100814.47
2023-04-26T02:54:20.806Z,100803.69
2023-04-26T02:56:47.723Z,100803.69
2023-04-26T02:59:14.669Z,100807.94
2023-04-26T03:01:41.708Z,100808.09
2023-04-26T03:04:08.767Z,100809.09
2023-04-26T03:06:36.321Z,100803.56
2023-04-26T03:09:03.286Z,100805.41
2023-04-26T03:11:30.318Z,100809.34
2023-04-26T03:13:57.188Z,100800.88
2023-04-26T03:16:24.337Z,100794.06
2023-04-26T03:18:51.598Z,100805.69
2023-04-26T03:21:18.670Z,100800.44
2023-04-26T03:23:45.617Z,100796.91
2023-04-26T03:26:12.745Z,100796.06
2023-04-26T03:28:39.691Z,100800.56
2023-04-26T03:31:06.750Z,100794.22
2023-04-26T03:33:33.700Z,100789.81
2023-04-26T03:36:00.667Z,100788.13
2023-04-26T03:38:27.734Z,100786.97
2023-04-26T03:40:54.672Z,100785.31
2023-04-26T03:43:21.708Z,100791.53
2023-04-26T03:45:49.950Z,100780.75
2023-04-26T03:48:17.449Z,100775.50
2023-04-26T03:50:46.203Z,100771.69
2023-04-26T03:53:13.201Z,100772.69
2023-04-26T03:55:40.436Z,100773.53
2023-04-26T03:58:08.446Z,100771.69
2023-04-26T04:00:39.408Z,100757.25
2023-04-26T04:03:07.854Z,100752.13
2023-04-26T04:05:35.206Z,100747.31
2023-04-26T04:08:02.462Z,100751.72
2023-04-26T04:10:29.738Z,100760.78
2023-04-26T04:12:56.628Z,100764.31
2023-04-26T04:15:23.718Z,100761.91
2023-04-26T04:17:50.656Z,100759.38
2023-04-26T04:20:17.667Z,100765.59
2023-04-26T04:22:44.928Z,100755.84
2023-04-26T04:25:12.017Z,100759.50
2023-04-26T04:27:39.156Z,100757.81
2023-04-26T04:30:08.764Z,100755.41
2023-04-26T04:32:37.161Z,100765.31
2023-04-26T04:35:05.617Z,100764.31
2023-04-26T04:37:35.681Z,100764.19
2023-04-26T04:40:02.643Z,100765.19
2023-04-26T04:42:29.603Z,100766.28
2023-04-26T04:44:57.276Z,100758.94
2023-04-26T04:47:24.885Z,100765.31
2023-04-26T04:49:51.920Z,100770.69
2023-04-26T04:52:20.353Z,100774.38
2023-04-26T04:54:47.696Z,100778.16
2023-04-26T04:57:14.622Z,100776.44
2023-04-26T04:59:41.698Z,100778.16
2023-04-26T05:02:08.625Z,100784.53
2023-04-26T05:04:36.318Z,100790.78
2023-04-26T05:07:03.365Z,100788.94
2023-04-26T05:09:30.264Z,100786.13
2023-04-26T05:11:57.610Z,100783.53
2023-04-26T05:14:24.504Z,100783.31
2023-04-26T05:16:51.512Z,100788.38
2023-04-26T05:19:18.629Z,100787.25
2023-04-26T05:21:45.526Z,100784.44
2023-04-26T05:24:12.425Z,100780.47
2023-04-26T05:26:39.349Z,100788.53
2023-04-26T05:29:06.535Z,100790.69
2023-04-26T05:31:33.706Z,100786.13
2023-04-26T05:34:00.645Z,100780.50
2023-04-26T05:36:29.986Z,100772.56
2023-04-26T05:38:57.003Z,100779.34
2023-04-26T05:41:24.079Z,100781.78
2023-04-26T05:43:51.506Z,100784.16
2023-04-26T05:46:18.594Z,100784.72
2023-04-26T05:48:46.332Z,100788.00
2023-04-26T05:51:13.221Z,100794.06
2023-04-26T05:53:40.454Z,100794.50
2023-04-26T05:56:07.712Z,100795.78
2023-04-26T05:58:34.698Z,100789.25
2023-04-26T06:01:01.960Z,100797.75
2023-04-26T06:03:29.168Z,100804.84
2023-04-26T06:05:56.748Z,100796.47
2023-04-26T06:08:23.697Z,100801.88
2023-04-26T06:10:50.879Z,100814.03
2023-04-26T06:13:18.122Z,100814.75
2023-04-26T06:15:45.587Z,100804.69
2023-04-26T06:18:12.860Z,100805.09
2023-04-26T06:20:39.842Z,100809.06
2023-04-26T06:23:06.959Z,100816.75
2023-04-26T06:25:34.521Z,100824.22
2023-04-26T06:28:01.461Z,100817.56
2023-04-26T06:30:28.513Z,100817.97
2023-04-26T06:32:55.799Z,100816.97
2023-04-26T06:35:24.964Z,100819.09
2023-04-26T06:37:52.284Z,100818.50
2023-04-26T06:40:19.305Z,100811.00
2023-04-26T06:42:46.449Z,100818.91
2023-04-26T06:45:13.394Z,100817.31
2023-04-26T06:47:40.800Z,100831.22
2023-04-26T06:50:08.866Z,100833.03
2023-04-26T06:52:35.802Z,100823.38
2023-04-26T06:55:03.913Z,100823.59
2023-04-26T06:57:31.098Z,100826.72
2023-04-26T06:59:58.458Z,100828.94
2023-04-26T07:02:25.706Z,100815.88
2023-04-26T07:04:53.346Z,100814.69
2023-04-26T07:07:20.544Z,100819.19
2023-04-26T07:09:47.860Z,100812.84
2023-04-26T07:12:14.978Z,100809.94
2023-04-26T07:14:43.582Z,100811.72
2023-04-26T07:17:11.076Z,100807.13
2023-04-26T07:19:37.995Z,100808.66
2023-04-26T07:22:05.282Z,100809.34
2023-04-26T07:24:32.402Z,100809.41
2023-04-26T07:26:59.424Z,100806.88
2023-04-26T07:29:26.486Z,100810.84
2023-04-26T07:31:53.366Z,100798.03
2023-04-26T07:34:20.340Z,100814.47
2023-04-26T07:36:47.217Z,100804.03
2023-04-26T07:39:15.688Z,100803.88
2023-04-26T07:41:44.188Z,100812.53
2023-04-26T07:44:11.693Z,100804.63
2023-04-26T07:46:38.674Z,100804.88
2023-04-26T07:49:05.630Z,100808.25
2023-04-26T07:51:32.590Z,100799.81
2023-04-26T07:53:59.555Z,100808.00
2023-04-26T07:56:26.464Z,100806.69
2023-04-26T07:58:53.427Z,100804.16
2023-04-26T08:01:20.326Z,100804.09
2023-04-26T08:03:49.355Z,100804.97
2023-04-26T08:06:17.023Z,100803.16
2023-04-26T08:08:50.918Z,100810.31
2023-04-26T08:11:18.491Z,100813.06
2023-04-26T08:13:45.458Z,100811.41
2023-04-26T08:16:12.813Z,100805.34
2023-04-26T08:18:39.952Z,100813.84
2023-04-26T08:21:07.154Z,100813.69
2023-04-26T08:23:38.532Z,100811.00
2023-04-26T08:26:06.738Z,100812.22
2023-04-26T08:28:33.820Z,100804.28
2023-04-26T08:31:00.734Z,100802.47
2023-04-26T08:33:27.780Z,100803.47
2023-04-26T08:35:55.261Z,100810.09
2023-04-26T08:38:24.973Z,100811.28
2023-04-26T08:40:52.124Z,100805.69
2023-04-26T08:43:19.023Z,100806.91
2023-04-26T08:45:47.539Z,100804.19
2023-04-26T08:48:18.666Z,100810.00
2023-04-26T08:50:49.633Z,100811.69
2023-04-26T08:53:21.971Z,100803.56
2023-04-26T08:55:52.220Z,100807.97
2023-04-26T08:58:19.543Z,100802.72
2023-04-26T09:00:46.842Z,100796.94
2023-04-26T09:03:14.239Z,100797.41
2023-04-26T09:05:45.942Z,100803.69
2023-04-26T09:08:22.894Z,100800.44
2023-04-26T09:10:49.944Z,100791.94
2023-04-26T09:13:16.854Z,100804.09
2023-04-26T09:15:43.797Z,100801.88
2023-04-26T09:18:24.204Z,100795.56
2023-04-26T09:21:09.237Z,100794.84
2023-04-26T09:23:36.297Z,100792.34
2023-04-26T09:26:25.231Z,100794.47
2023-04-26T09:29:14.007Z,100790.50
2023-04-26T09:31:49.712Z,100801.50
2023-04-26T09:34:17.202Z,100800.16
2023-04-26T09:36:58.046Z,100795.47
2023-04-26T09:39:37.892Z,100795.22
2023-04-26T09:42:06.239Z,100794.47
2023-04-26T09:44:33.963Z,100793.34
2023-04-26T09:47:06.217Z,100791.97
2023-04-26T09:49:48.757Z,100783.38
2023-04-26T09:52:16.576Z,100793.59
2023-04-26T09:54:47.701Z,100783.00
2023-04-26T09:57:17.577Z,100788.75
2023-04-26T09:59:49.382Z,100784.31
2023-04-26T10:02:20.691Z,100768.66
2023-04-26T10:04:51.036Z,100770.66
2023-04-26T10:07:21.972Z,100763.16
2023-04-26T10:09:50.007Z,100759.03
2023-04-26T10:12:19.653Z,100762.06
2023-04-26T10:14:47.592Z,100758.28
2023-04-26T10:17:15.212Z,100762.41
2023-04-26T10:19:47.312Z,100758.38
2023-04-26T10:22:40.319Z,100757.72
2023-04-26T10:25:10.156Z,100760.78
2023-04-26T10:27:47.241Z,100769.13
2023-04-26T10:30:23.316Z,100759.13
2023-04-26T10:32:56.152Z,100767.28
2023-04-26T10:35:29.394Z,100763.16
2023-04-26T10:38:02.323Z,100758.19
2023-04-26T10:40:36.416Z,100753.59
2023-04-26T10:43:10.080Z,100754.91
2023-04-26T10:45:38.487Z,100747.03
2023-04-26T10:48:29.048Z,100745.91
2023-04-26T10:51:02.416Z,100744.88
2023-04-26T10:53:53.415Z,100737.69
2023-04-26T10:56:23.848Z,100732.59
2023-04-26T10:59:30.657Z,100733.06
2023-04-26T11:02:01.508Z,100734.53
2023-04-26T11:04:54.348Z,100728.34
2023-04-26T11:07:38.523Z,100728.69
2023-04-26T11:10:12.717Z,100728.19
2023-04-26T11:12:42.704Z,100733.13
2023-04-26T11:15:13.202Z,100739.09
2023-04-26T11:17:40.418Z,100729.75
2023-04-26T11:20:16.604Z,100740.09
2023-04-26T11:22:43.916Z,100741.75
2023-04-26T11:25:13.553Z,100742.34
2023-04-26T11:27:43.710Z,100731.81
2023-04-26T11:30:11.964Z,100726.81
2023-04-26T11:32:38.914Z,100733.56
2023-04-26T11:35:06.741Z,100729.22
2023-04-26T11:37:35.096Z,100731.91
2023-04-26T11:40:02.253Z,100723.19
2023-04-26T11:42:29.165Z,100732.25
2023-04-26T11:44:57.783Z,100734.16
2023-04-26T11:47:26.354Z,100726.56
2023-04-26T11:49:53.792Z,100729.16
2023-04-26T11:52:20.792Z,100738.06
2023-04-26T11:54:47.745Z,100724.03
2023-04-26T11:57:19.770Z,100721.00
2023-04-26T11:59:47.100Z,100714.91
2023-04-26T12:02:14.592Z,100724.00
2023-04-26T12:04:42.063Z,100719.13
2023-04-26T12:07:09.904Z,100721.81
2023-04-26T12:09:44.786Z,100718.84
2023-04-26T12:12:11.769Z,100708.75
2023-04-26T12:14:40.606Z,100703.38
2023-04-26T12:17:08.931Z,100713.75
2023-04-26T12:19:41.263Z,100721.50
2023-04-26T12:22:09.395Z,100712.91
2023-04-26T12:24:37.132Z,100720.84
2023-04-26T12:27:08.990Z,100709.53
2023-04-26T12:29:36.216Z,100714.44
2023-04-26T12:32:03.927Z,100708.16
2023-04-26T12:34:31.311Z,100701.50
2023-04-26T12:36:58.391Z,100708.66
2023-04-26T12:39:25.643Z,100704.84
2023-04-26T12:41:52.622Z,100706.50
2023-04-26T12:44:21.881Z,100711.09
2023-04-26T12:46:49.490Z,100705.19
2023-04-26T12:49:16.826Z,100707.72
2023-04-26T12:51:43.721Z,100705.56
2023-04-26T12:54:10.664Z,100700.00
2023-04-26T12:56:44.164Z,100709.66
2023-04-26T12:59:11.351Z,100707.09
2023-04-26T13:01:38.336Z,100710.78
2023-04-26T13:04:06.422Z,100708.13
2023-04-26T13:06:34.763Z,100719.22
2023-04-26T13:09:02.176Z,100719.38
2023-04-26T13:11:29.128Z,100719.16
2023-04-26T13:13:56.198Z,100727.66
2023-04-26T13:16:23.291Z,100727.66
2023-04-26T13:18:50.211Z,100710.94
2023-04-26T13:21:17.690Z,100717.53
2023-04-26T13:23:44.638Z,100712.59
2023-04-26T13:26:11.690Z,100721.41
2023-04-26T13:28:38.616Z,100719.34
2023-04-26T13:31:05.564Z,100715.00
2023-04-26T13:33:32.994Z,100717.28
2023-04-26T13:35:59.875Z,100708.25
2023-04-26T13:38:27.143Z,100714.41
2023-04-26T13:40:54.389Z,100704.94
2023-04-26T13:43:21.360Z,100698.13
2023-04-26T13:45:48.433Z,100689.44
2023-04-26T13:48:15.840Z,100698.44
2023-04-26T13:50:42.975Z,100704.56
2023-04-26T13:53:10.313Z,100701.47
2023-04-26T13:55:37.218Z,100711.16
2023-04-26T13:58:04.112Z,100696.38
2023-04-26T14:00:31.174Z,100700.38
2023-04-26T14:02:59.123Z,100698.06
2023-04-26T14:05:26.126Z,100696.78
2023-04-26T14:07:54.943Z,100691.06
2023-04-26T14:10:22.273Z,100693.81
2023-04-26T14:12:49.575Z,100694.63
2023-04-26T14:15:17.060Z,100694.06
2023-04-26T14:17:46.919Z,100698.06
2023-04-26T14:20:14.105Z,100689.25
2023-04-26T14:22:41.252Z,100689.94
2023-04-26T14:25:11.310Z,100685.53
2023-04-26T14:27:39.638Z,100692.03
2023-04-26T14:30:07.985Z,100692.44
2023-04-26T14:32:34.902Z,100684.69
2023-04-26T14:35:01.811Z,100688.47
2023-04-26T14:37:28.705Z,100696.44
2023-04-26T14:39:55.617Z,100689.56
2023-04-26T14:42:22.754Z,100690.59
2023-04-26T14:44:50.001Z,100687.47
2023-04-26T14:47:16.922Z,100686.66
2023-04-26T14:49:44.237Z,100679.28
2023-04-26T14:52:11.309Z,100680.69
2023-04-26T14:54:41.875Z,100685.06
2023-04-26T14:57:10.757Z,100686.53
2023-04-26T14:59:37.839Z,100676.25
2023-04-26T15:02:05.451Z,100674.78
2023-04-26T15:04:32.905Z,100671.16
2023-04-26T15:07:00.117Z,100673.25
2023-04-26T15:09:29.778Z,100676.22
2023-04-26T15:11:57.366Z,100671.78
2023-04-26T15:14:24.472Z,100671.59
2023-04-26T15:16:51.541Z,100655.84
2023-04-26T15:19:18.815Z,100660.59
2023-04-26T15:21:45.769Z,100656.84
2023-04-26T15:24:12.657Z,100660.22
2023-04-26T15:26:39.702Z,100653.13
2023-04-26T15:29:06.770Z,100660.94
2023-04-26T15:31:34.703Z,100654.91
2023-04-26T15:34:02.804Z,100645.28
2023-04-26T15:36:29.760Z,100659.13
2023-04-26T15:38:56.975Z,100649.00
2023-04-26T15:41:23.891Z,100650.66
2023-04-26T15:43:57.709Z,100662.16
2023-04-26T15:46:25.048Z,100660.16
2023-04-26T15:48:52.034Z,100666.44
2023-04-26T15:51:19.013Z,100671.59
2023-04-26T15:53:45.927Z,100667.97
2023-04-26T15:56:18.059Z,100674.59
2023-04-26T15:58:45.921Z,100672.06
2023-04-26T16:01:13.835Z,100674.97
2023-04-26T16:03:42.670Z,100679.56
2023-04-26T16:06:11.848Z,100678.75
2023-04-26T16:08:40.613Z,100684.22
2023-04-26T16:11:07.922Z,100681.69
2023-04-26T16:13:35.018Z,100687.13
2023-04-26T16:16:02.095Z,100683.50
2023-04-26T16:18:29.008Z,100685.31
2023-04-26T16:21:04.958Z,100689.63
2023-04-26T16:23:32.006Z,100683.00
2023-04-26T16:25:59.021Z,100678.66
2023-04-26T16:28:26.459Z,100683.47
2023-04-26T16:30:53.871Z,100686.78
2023-04-26T16:33:22.873Z,100687.06
2023-04-26T16:35:55.697Z,100698.59
2023-04-26T16:38:23.225Z,100694.31
2023-04-26T16:40:58.686Z,100692.44
2023-04-26T16:43:27.368Z,100683.78
2023-04-26T16:46:05.072Z,100688.22
2023-04-26T16:48:35.861Z,100697.41
2023-04-26T16:51:07.148Z,100689.56
2023-04-26T16:53:35.337Z,100690.81
2023-04-26T16:56:02.751Z,100694.69
2023-04-26T16:58:29.854Z,100690.56
2023-04-26T17:00:57.056Z,100688.44
2023-04-26T17:03:24.782Z,100688.16
2023-04-26T17:05:52.247Z,100685.34
2023-04-26T17:08:19.871Z,100690.25
2023-04-26T17:10:47.691Z,100690.91
2023-04-26T17:13:18.004Z,100693.88
2023-04-26T17:15:45.396Z,100692.84
2023-04-26T17:18:12.630Z,100691.06
2023-04-26T17:20:39.614Z,100692.97
2023-04-26T17:23:08.088Z,100690.72
2023-04-26T17:25:35.093Z,100694.00
2023-04-26T17:28:02.174Z,100690.16
2023-04-26T17:30:29.234Z,100696.00
2023-04-26T17:32:56.232Z,100685.66
2023-04-26T17:35:23.160Z,100688.00
2023-04-26T17:37:50.669Z,100683.63
2023-04-26T17:40:18.951Z,100683.97
2023-04-26T17:42:46.574Z,100678.25
2023-04-26T17:45:14.599Z,100678.53
2023-04-26T17:47:43.255Z,100683.16
2023-04-26T17:50:10.846Z,100686.22
2023-04-26T17:52:38.594Z,100678.66
2023-04-26T17:55:08.420Z,100681.72
2023-04-26T17:57:38.046Z,100692.44
2023-04-26T18:00:10.434Z,100680.59
2023-04-26T18:02:37.850Z,100682.66
2023-04-26T18:05:08.724Z,100689.50
2023-04-26T18:07:35.673Z,100688.25
2023-04-26T18:10:02.676Z,100689.66
2023-04-26T18:12:32.101Z,100686.94
2023-04-26T18:14:59.471Z,100694.25
2023-04-26T18:17:26.554Z,100690.59
2023-04-26T18:19:53.459Z,100691.81
2023-04-26T18:22:20.632Z,100685.41
2023-04-26T18:24:47.556Z,100689.16
2023-04-26T18:27:14.634Z,100681.56
2023-04-26T18:29:41.785Z,100678.72
2023-04-26T18:32:08.689Z,100676.06
2023-04-26T18:34:36.505Z,100676.91
2023-04-26T18:37:03.387Z,100684.22
2023-04-26T18:39:30.694Z,100687.03
2023-04-26T18:41:57.777Z,100676.34
2023-04-26T18:44:26.488Z,100684.47
2023-04-26T18:46:56.045Z,100680.25
2023-04-26T18:49:24.236Z,100683.88
2023-04-26T18:51:51.276Z,100675.72
2023-04-26T18:54:18.480Z,100676.94
2023-04-26T18:56:45.749Z,100678.63
2023-04-26T18:59:13.220Z,100679.69
2023-04-26T19:01:41.503Z,100673.44
2023-04-26T19:04:10.489Z,100680.88
2023-04-26T19:06:38.069Z,100676.00
2023-04-26T19:09:07.341Z,100679.06
2023-04-26T19:11:34.909Z,100687.19
2023-04-26T19:14:02.615Z,100684.00
2023-04-26T19:16:31.203Z,100685.28
2023-04-26T19:18:58.481Z,100691.72
2023-04-26T19:21:25.449Z,100685.13
2023-04-26T19:23:52.493Z,100695.31
2023-04-26T19:26:19.721Z,100692.50
2023-04-26T19:28:46.955Z,100691.63
2023-04-26T19:31:14.362Z,100698.25
2023-04-26T19:33:41.742Z,100697.94
2023-04-26T19:36:09.866Z,100701.50
2023-04-26T19:38:36.764Z,100704.56
2023-04-26T19:41:03.693Z,100713.91
2023-04-26T19:43:30.916Z,100715.78
2023-04-26T19:45:57.810Z,100714.28
2023-04-26T19:48:24.794Z,100718.88
2023-04-26T19:50:52.148Z,100718.16
2023-04-26T19:53:19.144Z,100718.88
2023-04-26T19:55:46.724Z,100718.00
2023-04-26T19:58:13.674Z,100718.38
2023-04-26T20:00:40.844Z,100724.13
2023-04-26T20:03:08.465Z,100730.41
2023-04-26T20:05:35.599Z,100732.44
2023-04-26T20:08:02.885Z,100736.69
2023-04-26T20:10:34.326Z,100742.78
2023-04-26T20:13:01.725Z,100750.44
2023-04-26T20:15:32.205Z,100744.34
2023-04-26T20:18:00.687Z,100752.84
2023-04-26T20:20:28.893Z,100757.22
2023-04-26T20:22:55.812Z,100759.97
2023-04-26T20:25:22.966Z,100762.19
2023-04-26T20:27:50.657Z,100777.44
2023-04-26T20:30:17.535Z,100777.13
2023-04-26T20:32:44.542Z,100774.06
2023-04-26T20:35:13.908Z,100774.22
2023-04-26T20:37:40.918Z,100773.25
2023-04-26T20:40:09.506Z,100773.56
2023-04-26T20:42:36.629Z,100784.59
2023-04-26T20:45:04.160Z,100781.53
2023-04-26T20:47:31.558Z,100791.03
2023-04-26T20:49:59.232Z,100796.81
2023-04-26T20:52:27.272Z,100785.63
2023-04-26T20:54:56.706Z,100786.31
2023-04-26T20:57:24.980Z,100790.19
2023-04-26T20:59:51.902Z,100793.41
2023-04-26T21:02:19.094Z,100791.88
2023-04-26T21:04:46.602Z,100794.41
2023-04-26T21:07:13.737Z,100793.38
2023-04-26T21:09:40.769Z,100801.88
2023-04-26T21:12:07.714Z,100795.94
2023-04-26T21:14:34.835Z,100798.25
2023-04-26T21:17:01.736Z,100802.16
2023-04-26T21:19:28.762Z,100804.50
2023-04-26T21:21:55.892Z,100806.69
2023-04-26T21:24:22.878Z,100798.06
2023-04-26T21:26:49.826Z,100802.47
2023-04-26T21:29:16.741Z,100801.75
2023-04-26T21:31:43.812Z,100794.31
2023-04-26T21:34:11.111Z,100795.81
2023-04-26T21:36:38.102Z,100802.72
2023-04-26T21:39:04.968Z,100800.69
2023-04-26T21:41:32.316Z,100795.25
2023-04-26T21:43:59.208Z,100799.94
2023-04-26T21:46:26.571Z,100800.06
2023-04-26T21:48:53.711Z,100798.69
2023-04-26T21:51:20.792Z,100803.06
2023-04-26T21:53:47.727Z,100802.34
2023-04-26T21:56:15.030Z,100804.97
2023-04-26T21:58:42.337Z,100796.50
2023-04-26T22:01:15.336Z,100788.66
2023-04-26T22:03:42.727Z,100791.28
2023-04-26T22:06:11.436Z,100787.38
2023-04-26T22:08:38.857Z,100788.00
2023-04-26T22:11:06.178Z,100782.84
2023-04-26T22:13:33.487Z,100782.47
2023-04-26T22:16:00.443Z,100800.00
2023-04-26T22:18:28.786Z,100794.56
2023-04-26T22:20:55.703Z,100793.47
2023-04-26T22:23:22.615Z,100784.25
2023-04-26T22:25:49.532Z,100783.84
2023-04-26T22:28:16.769Z,100784.50
2023-04-26T22:30:43.864Z,100779.72
2023-04-26T22:33:12.504Z,100784.56
2023-04-26T22:35:39.708Z,100792.28
2023-04-26T22:38:06.696Z,100798.28
2023-04-26T22:40:33.807Z,100794.34
2023-04-26T22:43:01.149Z,100803.75
2023-04-26T22:45:28.290Z,100808.47
2023-04-26T22:47:55.518Z,100808.38
2023-04-26T22:50:22.607Z,100816.91
2023-04-26T22:52:50.217Z,100812.97
2023-04-26T22:55:17.942Z,100814.13
2023-04-26T22:57:45.001Z,100809.88
2023-04-26T23:00:14.403Z,100815.81
2023-04-26T23:02:41.444Z,100816.69
2023-04-26T23:05:12.202Z,100810.13
2023-04-26T23:07:40.035Z,100805.28
2023-04-26T23:10:08.003Z,100803.97
2023-04-26T23:12:36.392Z,100801.28
2023-04-26T23:15:05.503Z,100802.38
2023-04-26T23:17:34.415Z,100799.81
2023-04-26T23:20:01.537Z,100799.53
2023-04-26T23:22:28.843Z,100798.13
2023-04-26T23:24:55.820Z,100793.88
2023-04-26T23:27:24.859Z,100799.88
2023-04-26T23:29:52.011Z,100794.50
2023-04-26T23:32:19.126Z,100804.47
2023-04-26T23:34:46.022Z,100809.88
2023-04-26T23:37:12.938Z,100811.03
2023-04-26T23:39:39.849Z,100805.09
2023-04-26T23:42:06.854Z,100804.53
2023-04-26T23:44:33.859Z,100797.75
2023-04-26T23:47:01.213Z,100806.72
2023-04-26T23:49:28.387Z,100803.03
2023-04-26T23:51:55.546Z,100792.41
2023-04-26T23:54:22.672Z,100789.84
2023-04-26T23:56:49.554Z,100793.00
2023-04-26T23:59:17.098Z,100788.88
